Time;durP1;ratioP1;P1;durP2;ratioP2;P2;SDS_P1;SDS_P2;PMS_P1;PMS_P2;Temp;Humidity;BMP_temperature;BMP_pressure;BME280_temperature;BME280_humidity;BME280_pressure;Samples;Min_cycle;Max_cycle;Signal;HPM_P1;HPM_P2
2023/05/05 00:01:08;;;;;;;;;;;;;;;14.19;51.30;101584.88;4113375;28;20025;-66
2023/05/05 00:03:09;;;;;;;;;;;;;;;14.20;51.37;101587.41;4114398;28;20045;-66
2023/05/05 00:05:11;;;;;;;;;;;;;;;14.19;51.40;101587.59;4114771;28;20030;-65
2023/05/05 00:07:13;;;;;;;;;;;;;;;14.17;51.44;101592.34;4115243;28;20017;-65
2023/05/05 00:09:16;;;;;;;;;;;;;;;14.12;51.70;101586.59;4114649;28;20024;-65
2023/05/05 00:11:18;;;;;;;;;;;;;;;14.08;51.74;101593.44;4114061;28;20024;-66
2023/05/05 00:13:21;;;;;;;;;;;;;;;14.05;51.99;101591.91;4114334;28;20021;-65
2023/05/05 00:15:23;;;;;;;;;;;;;;;14.05;52.08;101586.50;4115194;28;19926;-66
2023/05/05 00:17:26;;;;;;;;;;;;;;;14.02;52.01;101586.84;4113680;28;20080;-65
2023/05/05 00:19:28;;;;;;;;;;;;;;;14.01;52.21;101594.16;4113020;28;20029;-65
2023/05/05 00:21:30;;;;;;;;;;;;;;;14.02;51.87;101595.00;4114412;28;20025;-65
2023/05/05 00:23:32;;;;;;;;;;;;;;;14.00;52.34;101589.75;4114449;28;20033;-65
2023/05/05 00:25:34;;;;;;;;;;;;;;;13.99;52.05;101590.75;4114288;28;20471;-65
2023/05/05 00:27:36;;;;;;;;;;;;;;;13.98;52.26;101586.38;4112318;28;20036;-65
2023/05/05 00:29:38;;;;;;;;;;;;;;;13.96;52.17;101590.28;4112839;28;20492;-65
2023/05/05 00:31:40;;;;;;;;;;;;;;;13.95;52.55;101586.72;4112166;28;20029;-66
2023/05/05 00:33:43;;;;;;;;;;;;;;;13.93;52.56;101583.31;4113063;28;20399;-65
2023/05/05 00:35:45;;;;;;;;;;;;;;;13.94;52.22;101578.75;4120641;28;19933;-65
2023/05/05 00:37:48;;;;;;;;;;;;;;;13.94;52.39;101576.03;4120681;28;20484;-66
2023/05/05 00:39:50;;;;;;;;;;;;;;;13.94;52.28;101579.59;4112115;28;20020;-65
2023/05/05 00:41:53;;;;;;;;;;;;;;;13.91;52.61;101568.25;4113819;28;20033;-65
2023/05/05 00:43:55;;;;;;;;;;;;;;;13.87;52.68;101568.59;4111246;28;20041;-65
2023/05/05 00:46:01;;;;;;;;;;;;;;;13.87;52.68;101570.47;4114217;28;20016;-65
2023/05/05 00:48:03;;;;;;;;;;;;;;;13.85;52.46;101572.50;4114631;28;20029;-65
2023/05/05 00:50:08;;;;;;;;;;;;;;;13.80;52.82;101561.34;4113212;28;20012;-65
2023/05/05 00:52:10;;;;;;;;;;;;;;;13.77;52.69;101567.13;4112982;28;20375;-65
2023/05/05 00:54:12;;;;;;;;;;;;;;;13.77;52.96;101567.13;4112565;28;20025;-66
2023/05/05 00:56:14;;;;;;;;;;;;;;;13.75;52.72;101558.34;4119361;28;20428;-65
2023/05/05 00:58:16;;;;;;;;;;;;;;;13.74;52.97;101556.63;4112621;28;20025;-66
2023/05/05 01:00:18;;;;;;;;;;;;;;;13.70;52.77;101556.16;4112997;28;20021;-66
2023/05/05 01:02:21;;;;;;;;;;;;;;;13.69;53.20;101554.44;4114214;28;20021;-66
2023/05/05 01:04:24;;;;;;;;;;;;;;;13.68;52.69;101563.59;4120607;28;20009;-65
2023/05/05 01:06:32;;;;;;;;;;;;;;;13.72;52.89;101559.53;4120534;28;20020;-66
2023/05/05 01:08:39;;;;;;;;;;;;;;;13.76;52.61;101560.00;4113942;28;20005;-65
2023/05/05 01:10:42;;;;;;;;;;;;;;;13.75;52.89;101555.63;4113416;28;20029;-65
2023/05/05 01:12:46;;;;;;;;;;;;;;;13.73;52.90;101554.94;4113215;28;20028;-65
2023/05/05 01:14:50;;;;;;;;;;;;;;;13.70;52.70;101553.44;4113375;28;20025;-65
2023/05/05 01:16:55;;;;;;;;;;;;;;;13.70;52.60;101559.69;4113852;28;19937;-65
2023/05/05 01:18:58;;;;;;;;;;;;;;;13.67;52.78;101557.34;4112514;28;20020;-66
2023/05/05 01:21:02;;;;;;;;;;;;;;;13.62;52.81;101559.75;4103807;28;20049;-65
2023/05/05 01:23:07;;;;;;;;;;;;;;;13.59;53.27;101562.81;4113180;28;20029;-66
2023/05/05 01:25:22;;;;;;;;;;;;;;;13.54;53.24;101551.63;4113170;28;20455;-65
2023/05/05 01:27:34;;;;;;;;;;;;;;;13.50;53.58;101556.56;4103919;28;20615;-65
2023/05/05 01:29:42;;;;;;;;;;;;;;;13.44;53.38;101551.84;4113754;28;20029;-66
2023/05/05 01:31:50;;;;;;;;;;;;;;;13.44;53.49;101553.72;4111563;28;20017;-65
2023/05/05 01:33:57;;;;;;;;;;;;;;;13.44;53.34;101553.72;4113898;28;20021;-66
2023/05/05 01:36:01;;;;;;;;;;;;;;;13.39;53.49;101547.97;4113850;28;20356;-65
2023/05/05 01:38:06;;;;;;;;;;;;;;;13.36;53.64;101554.59;4113291;28;20468;-65
2023/05/05 01:40:09;;;;;;;;;;;;;;;13.32;53.85;101551.38;4112874;28;20024;-65
2023/05/05 01:42:13;;;;;;;;;;;;;;;13.30;54.10;101555.25;4111179;28;20024;-65
2023/05/05 01:44:17;;;;;;;;;;;;;;;13.28;53.75;101547.31;4110930;28;20028;-65
2023/05/05 01:46:21;;;;;;;;;;;;;;;13.30;53.70;101547.13;4119442;28;20009;-65
2023/05/05 01:48:24;;;;;;;;;;;;;;;13.28;53.66;101546.47;4112495;28;20040;-65
2023/05/05 01:50:27;;;;;;;;;;;;;;;13.25;54.03;101549.53;4112563;28;20070;-65
2023/05/05 01:52:29;;;;;;;;;;;;;;;13.24;54.00;101545.94;4111926;28;20028;-65
2023/05/05 01:54:31;;;;;;;;;;;;;;;13.23;53.93;101554.25;4113523;28;20120;-65
2023/05/05 01:56:33;;;;;;;;;;;;;;;13.23;53.96;101554.25;4120025;28;20017;-65
2023/05/05 01:58:35;;;;;;;;;;;;;;;13.21;53.99;101548.16;4110668;28;19949;-65
2023/05/05 02:00:37;;;;;;;;;;;;;;;13.20;54.29;101555.47;4110975;28;20032;-65
2023/05/05 02:02:39;;;;;;;;;;;;;;;13.16;54.00;101551.41;4111711;28;20020;-66
2023/05/05 02:04:43;;;;;;;;;;;;;;;13.13;54.34;101541.78;4111461;28;20024;-65
2023/05/05 02:06:46;;;;;;;;;;;;;;;13.10;54.34;101543.97;4110798;28;20021;-65
2023/05/05 02:08:48;;;;;;;;;;;;;;;13.09;54.29;101536.88;4112089;28;20016;-65
2023/05/05 02:10:50;;;;;;;;;;;;;;;13.08;54.12;101549.56;4112697;28;20020;-65
2023/05/05 02:12:52;;;;;;;;;;;;;;;13.06;54.40;101543.47;4113433;28;20041;-66
2023/05/05 02:14:54;;;;;;;;;;;;;;;13.01;54.38;101543.16;4113280;28;20406;-65
2023/05/05 02:16:57;;;;;;;;;;;;;;;12.98;54.33;101540.78;4112854;28;20021;-66
2023/05/05 02:19:00;;;;;;;;;;;;;;;12.94;54.62;101544.84;4111167;28;20447;-65
2023/05/05 02:21:03;;;;;;;;;;;;;;;12.92;54.84;101542.31;4111553;28;20005;-66
2023/05/05 02:23:06;;;;;;;;;;;;;;;12.92;54.39;101542.31;4112505;28;20405;-66
2023/05/05 02:25:09;;;;;;;;;;;;;;;12.91;54.74;101539.78;4112390;28;20361;-65
2023/05/05 02:27:11;;;;;;;;;;;;;;;12.88;54.44;101538.25;4109673;28;20016;-65
2023/05/05 02:29:15;;;;;;;;;;;;;;;12.88;54.86;101545.53;4110803;28;20028;-65
2023/05/05 02:31:18;;;;;;;;;;;;;;;12.84;54.91;101544.22;4110723;28;20033;-66
2023/05/05 02:33:20;;;;;;;;;;;;;;;12.80;54.90;101544.56;4111446;28;20012;-65
2023/05/05 02:35:27;;;;;;;;;;;;;;;12.79;54.75;101548.28;4116344;28;20020;-65
2023/05/05 02:37:30;;;;;;;;;;;;;;;12.77;54.98;101546.75;4122574;28;20033;-65
2023/05/05 02:39:35;;;;;;;;;;;;;;;12.75;55.04;101555.06;4128032;28;20027;-65
2023/05/05 02:41:42;;;;;;;;;;;;;;;12.73;54.96;101542.72;4106367;28;20017;-65
2023/05/05 02:43:53;;;;;;;;;;;;;;;12.71;55.12;101545.59;4122209;28;20029;-65
2023/05/05 02:45:56;;;;;;;;;;;;;;;12.68;54.94;101551.34;4114652;28;20373;-65
2023/05/05 02:47:59;;;;;;;;;;;;;;;12.66;54.97;101541.69;4114533;28;20020;-65
2023/05/05 02:50:01;;;;;;;;;;;;;;;12.65;55.13;101542.69;4114497;28;20875;-65
2023/05/05 02:52:04;;;;;;;;;;;;;;;12.66;55.22;101537.09;4114016;28;20116;-65
2023/05/05 02:54:11;;;;;;;;;;;;;;;12.66;55.18;101545.22;4113416;28;20022;-65
2023/05/05 02:56:16;;;;;;;;;;;;;;;12.65;55.09;101548.97;4113026;28;20021;-65
2023/05/05 02:58:27;;;;;;;;;;;;;;;12.62;55.30;101542.03;4122289;28;20623;-65
2023/05/05 03:00:31;;;;;;;;;;;;;;;12.65;55.12;101551.69;4121907;28;19926;-65
2023/05/05 03:02:35;;;;;;;;;;;;;;;12.61;54.99;101545.75;4105278;28;20363;-65
2023/05/05 03:04:38;;;;;;;;;;;;;;;12.62;55.23;101541.19;4120903;28;19964;-65
2023/05/05 03:06:41;;;;;;;;;;;;;;;12.66;55.23;101547.94;4122399;28;20033;-66
2023/05/05 03:08:48;;;;;;;;;;;;;;;12.69;54.96;101546.78;4122312;28;20021;-65
2023/05/05 03:10:57;;;;;;;;;;;;;;;12.73;54.54;101543.53;4114706;28;20021;-65
2023/05/05 03:13:00;;;;;;;;;;;;;;;12.76;54.18;101555.91;4115047;28;20025;-66
2023/05/05 03:15:10;;;;;;;;;;;;;;;12.75;54.05;101546.91;4121408;28;20016;-65
2023/05/05 03:17:12;;;;;;;;;;;;;;;12.78;54.18;101545.75;4114194;28;20021;-65
2023/05/05 03:19:16;;;;;;;;;;;;;;;12.83;54.11;101542.50;4106504;28;20017;-65
2023/05/05 03:21:18;;;;;;;;;;;;;;;12.87;53.87;101539.28;4115709;28;20021;-66
2023/05/05 03:23:21;;;;;;;;;;;;;;;12.89;53.90;101536.41;4113147;28;20037;-65
2023/05/05 03:25:41;;;;;;;;;;;;;;;12.89;53.60;101541.81;4122126;28;20017;-65
2023/05/05 03:27:46;;;;;;;;;;;;;;;12.89;53.44;101544.53;4114668;28;21555;-65
2023/05/05 03:29:52;;;;;;;;;;;;;;;12.88;53.79;101540.97;4104583;28;20025;-65
2023/05/05 03:31:54;;;;;;;;;;;;;;;12.88;53.67;101542.84;4114087;28;20468;-66
2023/05/05 03:33:56;;;;;;;;;;;;;;;12.87;54.15;101538.41;4111995;28;20020;-65
2023/05/05 03:36:02;;;;;;;;;;;;;;;12.87;54.00;101543.84;4121885;28;20029;-65
2023/05/05 03:38:04;;;;;;;;;;;;;;;12.89;54.04;101544.53;4114961;28;20012;-65
2023/05/05 03:40:06;;;;;;;;;;;;;;;12.88;53.89;101540.97;4113699;28;20455;-65
2023/05/05 03:42:09;;;;;;;;;;;;;;;12.87;53.83;101541.13;4120941;28;19930;-65
2023/05/05 03:44:14;;;;;;;;;;;;;;;12.85;53.91;101554.03;4121323;28;20020;-65
2023/05/05 03:46:16;;;;;;;;;;;;;;;12.79;54.04;101539.31;4105339;28;20090;-65
2023/05/05 03:48:19;;;;;;;;;;;;;;;12.78;54.03;101540.31;4105804;28;20385;-65
2023/05/05 03:50:23;;;;;;;;;;;;;;;12.73;54.30;101543.53;4106108;28;20029;-65
2023/05/05 03:52:26;;;;;;;;;;;;;;;12.73;54.35;101553.56;4104839;28;20021;-65
2023/05/05 03:54:28;;;;;;;;;;;;;;;12.72;54.11;101541.00;4114409;28;19926;-65
2023/05/05 03:56:30;;;;;;;;;;;;;;;12.75;53.97;101541.50;4113594;28;20397;-65
2023/05/05 03:58:32;;;;;;;;;;;;;;;12.78;53.86;101535.72;4113470;28;20021;-66
2023/05/05 04:00:35;;;;;;;;;;;;;;;12.78;54.06;101545.75;4114296;28;20245;-66
2023/05/05 04:02:37;;;;;;;;;;;;;;;12.77;53.97;101544.03;4112921;28;19957;-65
2023/05/05 04:04:40;;;;;;;;;;;;;;;12.76;54.07;101542.38;4111828;28;20020;-65
2023/05/05 04:06:44;;;;;;;;;;;;;;;12.75;54.10;101541.50;4111677;28;20028;-65
2023/05/05 04:08:48;;;;;;;;;;;;;;;12.74;54.12;101539.81;4111229;28;20058;-65
2023/05/05 04:10:50;;;;;;;;;;;;;;;12.73;54.19;101546.25;4120739;28;20483;-65
2023/05/05 04:12:52;;;;;;;;;;;;;;;12.70;53.90;101545.75;4112391;28;20025;-65
2023/05/05 04:14:54;;;;;;;;;;;;;;;12.66;54.31;101541.69;4111861;28;20676;-65
2023/05/05 04:16:58;;;;;;;;;;;;;;;12.65;54.14;101540.00;4119628;28;20550;-65
2023/05/05 04:19:00;;;;;;;;;;;;;;;12.63;54.19;101542.88;4113889;28;20017;-65
2023/05/05 04:21:02;;;;;;;;;;;;;;;12.59;54.40;101536.94;4119195;28;20894;-65
2023/05/05 04:23:04;;;;;;;;;;;;;;;12.60;54.61;101540.50;4111429;28;20021;-65
2023/05/05 04:25:07;;;;;;;;;;;;;;;12.62;54.72;101530.34;4110459;28;20020;-65
2023/05/05 04:27:09;;;;;;;;;;;;;;;12.64;54.53;101543.72;4112501;28;20049;-66
2023/05/05 04:29:11;;;;;;;;;;;;;;;12.61;54.26;101544.91;4120169;28;20032;-66
2023/05/05 04:31:13;;;;;;;;;;;;;;;12.60;54.68;101548.63;4104014;28;20029;-65
2023/05/05 04:33:19;;;;;;;;;;;;;;;12.59;54.68;101555.91;4105003;28;20020;-66
2023/05/05 04:35:23;;;;;;;;;;;;;;;12.60;54.78;101557.63;4128446;28;20016;-65
2023/05/05 04:37:25;;;;;;;;;;;;;;;12.60;54.79;101559.47;4119375;28;20505;-65
2023/05/05 04:39:27;;;;;;;;;;;;;;;12.60;54.75;101557.63;4120265;28;20363;-65
2023/05/05 04:41:30;;;;;;;;;;;;;;;12.57;54.22;101562.50;4120547;28;20052;-65
2023/05/05 04:43:33;;;;;;;;;;;;;;;12.56;54.22;101564.38;4119218;28;20008;-65
2023/05/05 04:45:35;;;;;;;;;;;;;;;12.56;54.27;101561.69;4112604;28;20016;-65
2023/05/05 04:47:37;;;;;;;;;;;;;;;12.55;54.38;101564.56;4110499;28;20028;-66
2023/05/05 04:49:41;;;;;;;;;;;;;;;12.55;54.53;101567.28;4114175;28;20612;-66
2023/05/05 04:51:43;;;;;;;;;;;;;;;12.58;54.43;101566.94;4113282;28;20013;-66
2023/05/05 04:53:45;;;;;;;;;;;;;;;12.57;54.81;101573.34;4111768;28;20036;-65
2023/05/05 04:55:47;;;;;;;;;;;;;;;12.59;54.49;101574.88;4110474;28;20037;-65
2023/05/05 04:57:49;;;;;;;;;;;;;;;12.60;54.28;101567.59;4113064;28;20005;-66
2023/05/05 04:59:51;;;;;;;;;;;;;;;12.60;54.57;101575.72;4112187;28;20025;-66
2023/05/05 05:01:53;;;;;;;;;;;;;;;12.59;54.06;101580.31;4112080;28;20041;-65
2023/05/05 05:03:55;;;;;;;;;;;;;;;12.57;54.58;101573.34;4112726;28;20041;-65
2023/05/05 05:05:58;;;;;;;;;;;;;;;12.55;54.31;101572.69;4112162;28;20021;-66
2023/05/05 05:08:00;;;;;;;;;;;;;;;12.56;54.68;101572.50;4110869;28;20487;-64
2023/05/05 05:10:03;;;;;;;;;;;;;;;12.57;54.72;101576.94;4111289;28;20049;-66
2023/05/05 05:12:06;;;;;;;;;;;;;;;12.58;54.67;101581.31;4111219;28;20024;-66
2023/05/05 05:14:08;;;;;;;;;;;;;;;12.60;54.58;101578.44;4109033;28;20399;-64
2023/05/05 05:16:11;;;;;;;;;;;;;;;12.61;54.59;101582.84;4120093;28;20020;-65
2023/05/05 05:18:13;;;;;;;;;;;;;;;12.61;54.75;101578.25;4112075;28;20017;-65
2023/05/05 05:20:15;;;;;;;;;;;;;;;12.64;54.62;101568.97;4110717;28;20037;-65
2023/05/05 05:22:19;;;;;;;;;;;;;;;12.65;54.62;101575.22;4104012;28;20029;-65
2023/05/05 05:24:21;;;;;;;;;;;;;;;12.67;54.68;101570.50;4103940;28;19930;-65
2023/05/05 05:26:23;;;;;;;;;;;;;;;12.69;54.22;101580.13;4104080;28;20018;-64
2023/05/05 05:28:25;;;;;;;;;;;;;;;12.73;54.34;101586.06;4127410;28;20021;-64
2023/05/05 05:30:32;;;;;;;;;;;;;;;12.73;53.94;101577.94;4120406;28;20503;-65
2023/05/05 05:32:34;;;;;;;;;;;;;;;12.77;54.16;101585.56;4112007;28;20025;-65
2023/05/05 05:34:36;;;;;;;;;;;;;;;12.78;54.10;101594.53;4119019;28;20049;-64
2023/05/05 05:36:40;;;;;;;;;;;;;;;12.82;54.12;101584.19;4112210;28;20481;-64
2023/05/05 05:38:43;;;;;;;;;;;;;;;12.86;54.25;101588.25;4119198;28;20460;-65
2023/05/05 05:40:46;;;;;;;;;;;;;;;12.87;54.12;101582.66;4113462;28;20021;-66
2023/05/05 05:42:48;;;;;;;;;;;;;;;12.89;53.93;101587.91;4111445;28;20575;-64
2023/05/05 05:44:50;;;;;;;;;;;;;;;12.87;53.24;101585.38;4119667;28;19926;-65
2023/05/05 05:46:52;;;;;;;;;;;;;;;12.87;53.37;101588.09;4119892;28;20009;-65
2023/05/05 05:48:55;;;;;;;;;;;;;;;12.87;53.57;101590.81;4120281;28;20053;-65
2023/05/05 05:50:57;;;;;;;;;;;;;;;12.88;53.24;101583.50;4112625;28;20545;-65
2023/05/05 05:53:00;;;;;;;;;;;;;;;12.87;53.38;101590.81;4110266;28;20024;-65
2023/05/05 05:55:04;;;;;;;;;;;;;;;12.89;53.49;101586.03;4110598;28;20025;-65
2023/05/05 05:57:07;;;;;;;;;;;;;;;12.92;53.33;101584.88;4111534;28;20061;-65
2023/05/05 05:59:09;;;;;;;;;;;;;;;12.96;53.65;101588.91;4112377;28;20061;-65
2023/05/05 06:01:14;;;;;;;;;;;;;;;12.98;52.96;101585.00;4112959;28;20028;-65
2023/05/05 06:03:17;;;;;;;;;;;;;;;13.00;53.53;101570.44;4119317;28;20013;-64
2023/05/05 06:05:19;;;;;;;;;;;;;;;13.01;52.98;101574.84;4119549;28;19937;-65
2023/05/05 06:07:23;;;;;;;;;;;;;;;13.03;52.98;101575.53;4120027;28;20005;-65
2023/05/05 06:09:25;;;;;;;;;;;;;;;13.04;52.88;101571.78;4113644;28;20025;-65
2023/05/05 06:11:31;;;;;;;;;;;;;;;13.08;52.61;101583.97;4111160;28;20391;-65
2023/05/05 06:13:35;;;;;;;;;;;;;;;13.08;52.69;101571.25;4112062;28;20440;-65
2023/05/05 06:15:37;;;;;;;;;;;;;;;13.10;52.70;101582.81;4112784;28;20460;-65
2023/05/05 06:17:40;;;;;;;;;;;;;;;13.14;52.33;101583.28;4111070;28;20444;-65
2023/05/05 06:19:42;;;;;;;;;;;;;;;13.14;52.12;101586.84;4116655;28;20484;-65
2023/05/05 06:21:45;;;;;;;;;;;;;;;13.17;52.28;101582.94;4095938;28;20025;-65
2023/05/05 06:23:47;;;;;;;;;;;;;;;13.20;52.41;101589.88;4112407;28;20033;-64
2023/05/05 06:25:49;;;;;;;;;;;;;;;13.20;52.09;101593.44;4107354;28;20021;-64
2023/05/05 06:27:53;;;;;;;;;;;;;;;13.23;52.35;101601.25;4109785;28;20025;-64
2023/05/05 06:29:55;;;;;;;;;;;;;;;13.25;52.42;101588.34;4111055;28;20017;-65
2023/05/05 06:31:59;;;;;;;;;;;;;;;13.29;52.32;101578.84;4108928;28;20405;-64
2023/05/05 06:34:01;;;;;;;;;;;;;;;13.31;51.84;101586.81;4109707;28;20044;-65
2023/05/05 06:36:03;;;;;;;;;;;;;;;13.34;51.52;101590.03;4111546;28;20029;-66
2023/05/05 06:38:05;;;;;;;;;;;;;;;13.38;51.81;101586.97;4111594;28;20017;-65
2023/05/05 06:40:09;;;;;;;;;;;;;;;13.42;51.06;101591.06;4112356;28;20017;-65
2023/05/05 06:42:10;;;;;;;;;;;;;;;13.44;50.90;101584.41;4111376;28;20012;-66
2023/05/05 06:44:14;;;;;;;;;;;;;;;13.47;50.87;101585.94;4109026;28;20038;-65
2023/05/05 06:46:16;;;;;;;;;;;;;;;13.50;50.63;101583.69;4109250;28;19926;-65
2023/05/05 06:48:18;;;;;;;;;;;;;;;13.52;49.93;101591.66;4110857;28;20460;-65
2023/05/05 06:50:20;;;;;;;;;;;;;;;13.53;50.15;101587.94;4111479;28;20455;-65
2023/05/05 06:52:24;;;;;;;;;;;;;;;13.56;50.08;101584.00;4110803;28;20461;-65
2023/05/05 06:54:26;;;;;;;;;;;;;;;13.58;50.10;101585.53;4112237;28;20025;-65
2023/05/05 06:56:28;;;;;;;;;;;;;;;13.61;50.03;101587.06;4111620;28;20012;-65
2023/05/05 06:58:30;;;;;;;;;;;;;;;13.65;50.17;101580.25;4111451;28;20432;-65
2023/05/05 07:00:37;;;;;;;;;;;;;;;13.68;49.71;101582.59;4112422;28;20120;-66
2023/05/05 07:02:39;;;;;;;;;;;;;;;13.70;49.66;101583.28;4110574;28;20021;-65
2023/05/05 07:04:41;;;;;;;;;;;;;;;13.75;49.68;101585.47;4110938;28;20360;-65
2023/05/05 07:06:43;;;;;;;;;;;;;;;13.77;49.62;101584.25;4112372;28;20966;-66
2023/05/05 07:08:46;;;;;;;;;;;;;;;13.78;49.12;101591.41;4111598;28;20428;-65
2023/05/05 07:10:47;;;;;;;;;;;;;;;13.79;49.00;101584.09;4112258;28;20021;-65
2023/05/05 07:12:50;;;;;;;;;;;;;;;13.77;48.67;101588.84;4109088;28;20033;-65
2023/05/05 07:14:53;;;;;;;;;;;;;;;13.76;48.62;101588.03;4112226;28;20044;-65
2023/05/05 07:16:56;;;;;;;;;;;;;;;13.79;48.79;101586.81;4099302;28;20018;-66
2023/05/05 07:18:59;;;;;;;;;;;;;;;13.81;49.16;101590.19;4097424;28;20033;-66
2023/05/05 07:21:01;;;;;;;;;;;;;;;13.85;49.39;101596.94;4111582;28;20022;-65
2023/05/05 07:23:03;;;;;;;;;;;;;;;13.86;49.59;101594.06;4113697;28;20025;-65
2023/05/05 07:25:06;;;;;;;;;;;;;;;13.87;49.48;101593.03;4111931;28;20017;-65
2023/05/05 07:27:09;;;;;;;;;;;;;;;13.91;49.57;101598.97;4113897;28;20315;-65
2023/05/05 07:29:11;;;;;;;;;;;;;;;13.95;49.82;101600.31;4114653;28;20017;-65
2023/05/05 07:31:13;;;;;;;;;;;;;;;13.97;49.04;101605.56;4113473;28;20020;-65
2023/05/05 07:33:17;;;;;;;;;;;;;;;13.99;48.92;101596.19;4113988;28;20017;-65
2023/05/05 07:35:19;;;;;;;;;;;;;;;14.03;48.86;101602.13;4114415;28;20021;-65
2023/05/05 07:37:21;;;;;;;;;;;;;;;14.06;48.60;101599.06;4112719;28;20020;-65
2023/05/05 07:39:23;;;;;;;;;;;;;;;14.09;48.31;101605.97;4114766;28;20033;-65
2023/05/05 07:41:25;;;;;;;;;;;;;;;14.11;48.81;101603.94;4114627;28;20013;-65
2023/05/05 07:43:27;;;;;;;;;;;;;;;14.14;48.99;101598.16;4113734;28;20456;-65
2023/05/05 07:45:29;;;;;;;;;;;;;;;14.17;48.85;101603.19;4115063;28;20029;-65
2023/05/05 07:47:31;;;;;;;;;;;;;;;14.20;48.73;101611.88;4111994;28;20376;-65
2023/05/05 07:49:35;;;;;;;;;;;;;;;14.23;48.39;101606.06;4112801;28;20032;-65
2023/05/05 07:51:37;;;;;;;;;;;;;;;14.24;48.51;101615.06;4114270;28;20368;-65
2023/05/05 07:53:40;;;;;;;;;;;;;;;14.27;48.70;101608.44;4111218;28;20028;-64
2023/05/05 07:55:42;;;;;;;;;;;;;;;14.29;48.96;101609.09;4111719;28;20032;-65
2023/05/05 07:57:44;;;;;;;;;;;;;;;14.31;48.65;101609.75;4114954;28;20369;-65
2023/05/05 07:59:46;;;;;;;;;;;;;;;14.33;48.88;101613.97;4113640;28;20016;-65
2023/05/05 08:01:48;;;;;;;;;;;;;;;14.36;48.32;101610.91;4113493;28;20017;-65
2023/05/05 08:03:50;;;;;;;;;;;;;;;14.38;48.33;101611.56;4112954;28;20060;-65
2023/05/05 08:05:54;;;;;;;;;;;;;;;14.42;48.73;101620.22;4114623;28;20033;-65
2023/05/05 08:07:56;;;;;;;;;;;;;;;14.45;48.60;101602.69;4114589;28;20418;-65
2023/05/05 08:09:58;;;;;;;;;;;;;;;14.47;48.38;101606.09;4114736;28;20020;-65
2023/05/05 08:12:01;;;;;;;;;;;;;;;14.49;48.80;101595.88;4113115;28;20024;-65
2023/05/05 08:14:03;;;;;;;;;;;;;;;14.52;48.71;101601.78;4111396;28;20021;-65
2023/05/05 08:16:05;;;;;;;;;;;;;;;14.55;48.64;101597.84;4112935;28;20025;-65
2023/05/05 08:18:07;;;;;;;;;;;;;;;14.57;48.84;101595.78;4113478;28;20017;-65
2023/05/05 08:20:09;;;;;;;;;;;;;;;14.61;48.78;101594.44;4113997;28;20036;-66
2023/05/05 08:22:13;;;;;;;;;;;;;;;14.65;48.74;101584.88;4114315;28;20052;-65
2023/05/05 08:24:16;;;;;;;;;;;;;;;14.67;48.72;101592.84;4113659;28;20025;-65
2023/05/05 08:26:18;;;;;;;;;;;;;;;14.70;48.48;101592.47;4104480;28;20376;-65
2023/05/05 08:28:20;;;;;;;;;;;;;;;14.71;48.64;101595.00;4111791;28;20737;-65
2023/05/05 08:30:22;;;;;;;;;;;;;;;14.73;48.59;101587.53;4110258;28;20009;-65
2023/05/05 08:32:24;;;;;;;;;;;;;;;14.75;48.90;101585.47;4110859;28;20036;-64
2023/05/05 08:34:26;;;;;;;;;;;;;;;14.77;48.58;101590.72;4112499;28;20034;-65
2023/05/05 08:36:31;;;;;;;;;;;;;;;14.80;48.67;101595.81;4111289;28;20029;-65
2023/05/05 08:38:35;;;;;;;;;;;;;;;14.84;48.71;101588.94;4112379;28;20025;-65
2023/05/05 08:40:38;;;;;;;;;;;;;;;14.88;48.35;101589.44;4113038;28;20312;-66
2023/05/05 08:42:40;;;;;;;;;;;;;;;14.91;48.54;101594.50;4112157;28;20029;-65
2023/05/05 08:44:44;;;;;;;;;;;;;;;14.92;48.36;101585.31;4113033;28;20025;-65
2023/05/05 08:46:46;;;;;;;;;;;;;;;14.97;48.00;101585.63;4110449;28;20017;-65
2023/05/05 08:48:48;;;;;;;;;;;;;;;14.99;48.14;101580.00;4111873;28;19930;-65
2023/05/05 08:50:51;;;;;;;;;;;;;;;15.00;48.48;101581.66;4112765;28;20450;-65
2023/05/05 08:52:54;;;;;;;;;;;;;;;15.02;48.63;101582.34;4112133;28;20238;-65
2023/05/05 08:54:59;;;;;;;;;;;;;;;15.04;48.34;101580.25;4112336;28;20005;-65
2023/05/05 08:57:02;;;;;;;;;;;;;;;15.06;48.41;101584.50;4113107;28;20013;-64
2023/05/05 08:59:03;;;;;;;;;;;;;;;15.07;48.20;101583.44;4112735;28;20036;-65
2023/05/05 09:01:06;;;;;;;;;;;;;;;15.09;48.41;101581.41;4110829;28;20099;-65
2023/05/05 09:03:11;;;;;;;;;;;;;;;15.11;48.03;101579.34;4110524;28;20009;-65
2023/05/05 09:05:12;;;;;;;;;;;;;;;15.12;48.29;101582.91;4110675;28;20381;-66
2023/05/05 09:07:14;;;;;;;;;;;;;;;15.12;48.39;101581.03;4111996;28;20056;-65
2023/05/05 09:09:16;;;;;;;;;;;;;;;15.14;48.36;101584.41;4115959;28;20420;-65
2023/05/05 09:11:21;;;;;;;;;;;;;;;15.20;47.98;101584.69;4105303;28;20012;-65
2023/05/05 09:13:23;;;;;;;;;;;;;;;15.20;48.27;101587.41;4110073;28;20336;-65
2023/05/05 09:15:27;;;;;;;;;;;;;;;15.21;48.29;101579.06;4108347;28;20420;-65
2023/05/05 09:17:29;;;;;;;;;;;;;;;15.24;48.49;101591.44;4106797;28;20013;-65
2023/05/05 09:19:31;;;;;;;;;;;;;;;15.26;48.44;101587.50;4108701;28;20362;-65
2023/05/05 09:21:33;;;;;;;;;;;;;;;15.28;48.17;101581.88;4110270;28;20053;-65
2023/05/05 09:23:35;;;;;;;;;;;;;;;15.29;48.11;101589.00;4109939;28;20029;-66
2023/05/05 09:25:37;;;;;;;;;;;;;;;15.31;48.13;101584.22;4111921;28;20026;-66
2023/05/05 09:27:41;;;;;;;;;;;;;;;15.33;48.09;101584.88;4110455;28;20586;-65
2023/05/05 09:29:48;;;;;;;;;;;;;;;15.34;48.41;101583.84;4112598;28;20017;-66
2023/05/05 09:32:04;;;;;;;;;;;;;;;15.36;48.49;101587.22;4100167;28;20468;-65
2023/05/05 09:34:15;;;;;;;;;;;;;;;15.36;48.06;101581.78;4106555;28;20013;-66
2023/05/05 09:36:17;;;;;;;;;;;;;;;15.37;48.06;101582.63;4110216;28;20041;-65
2023/05/05 09:38:19;;;;;;;;;;;;;;;15.36;48.32;101576.34;4110517;28;20044;-65
2023/05/05 09:40:21;;;;;;;;;;;;;;;15.40;48.17;101571.34;4110330;28;20030;-66
2023/05/05 09:42:23;;;;;;;;;;;;;;;15.42;47.86;101581.03;4106467;28;20448;-66
2023/05/05 09:44:34;;;;;;;;;;;;;;;15.44;46.87;101578.13;4111171;28;20371;-66
2023/05/05 09:46:36;;;;;;;;;;;;;;;15.45;47.29;101569.78;4110585;28;20449;-65
2023/05/05 09:48:38;;;;;;;;;;;;;;;15.46;46.67;101557.00;4111583;28;20025;-66
2023/05/05 09:50:42;;;;;;;;;;;;;;;15.49;47.58;101576.50;4109273;28;20333;-65
2023/05/05 09:52:47;;;;;;;;;;;;;;;15.52;47.70;101568.97;4106831;28;20025;-66
2023/05/05 09:54:53;;;;;;;;;;;;;;;15.53;47.79;101574.25;4101651;28;20030;-65
2023/05/05 09:56:55;;;;;;;;;;;;;;;15.57;47.52;101572.84;4101589;28;20021;-65
2023/05/05 09:59:07;;;;;;;;;;;;;;;15.60;47.55;101566.19;4109520;28;20052;-65
2023/05/05 10:01:21;;;;;;;;;;;;;;;15.63;47.70;101573.97;4101715;28;20061;-66
2023/05/05 10:03:23;;;;;;;;;;;;;;;15.67;47.46;101569.81;4107882;28;20020;-65
2023/05/05 10:05:25;;;;;;;;;;;;;;;15.67;47.71;101567.97;4093156;28;20018;-65
2023/05/05 10:07:27;;;;;;;;;;;;;;;15.69;46.04;101570.50;4089151;29;20017;-65
2023/05/05 10:09:31;;;;;;;;;;;;;;;15.70;47.40;101566.72;4089097;29;20019;-65
2023/05/05 10:11:33;;;;;;;;;;;;;;;15.72;47.29;101563.78;4089950;29;20502;-65
2023/05/05 10:13:36;;;;;;;;;;;;;;;15.79;46.09;101557.44;4089698;29;20449;-65
2023/05/05 10:15:38;;;;;;;;;;;;;;;15.85;47.02;101561.28;4088512;29;20014;-65
2023/05/05 10:17:44;;;;;;;;;;;;;;;15.87;46.22;101556.47;4085721;29;19993;-65
2023/05/05 10:19:46;;;;;;;;;;;;;;;15.88;46.84;101562.75;4088459;28;20021;-65
2023/05/05 10:21:50;;;;;;;;;;;;;;;15.86;46.42;101546.59;4083566;29;20029;-65
2023/05/05 10:23:55;;;;;;;;;;;;;;;15.85;46.21;101558.56;4080582;29;20034;-65
2023/05/05 10:25:59;;;;;;;;;;;;;;;15.87;46.93;101548.31;4087528;29;20500;-65
2023/05/05 10:28:01;;;;;;;;;;;;;;;15.94;45.69;101551.09;4087573;29;20053;-65
2023/05/05 10:30:03;;;;;;;;;;;;;;;15.95;45.63;101548.16;4085974;29;20022;-65
2023/05/05 10:32:08;;;;;;;;;;;;;;;15.96;46.33;101551.75;4085852;28;19934;-65